createdAt,value
2022-12-19T00:01:34.672Z,27.79
2022-12-19T00:04:24.804Z,27.89
2022-12-19T00:07:15.016Z,27.91
2022-12-19T00:10:05.353Z,27.95
2022-12-19T00:12:55.291Z,27.96
2022-12-19T00:15:45.145Z,27.92
2022-12-19T00:18:35.568Z,27.92
2022-12-19T00:21:28.166Z,28.02
2022-12-19T00:24:21.428Z,28.02
2022-12-19T00:27:11.858Z,28.01
2022-12-19T00:30:01.986Z,28.05
2022-12-19T00:32:52.921Z,28.05
2022-12-19T00:35:43.792Z,28.04
2022-12-19T00:38:33.754Z,28.00
2022-12-19T00:41:27.215Z,28.07
2022-12-19T00:44:18.946Z,28.09
2022-12-19T00:47:09.467Z,28.12
2022-12-19T00:50:00.325Z,28.14
2022-12-19T00:52:50.048Z,28.18
2022-12-19T00:55:41.160Z,28.20
2022-12-19T00:58:35.324Z,28.03
2022-12-19T01:01:31.300Z,27.81
2022-12-19T01:04:29.539Z,27.63
2022-12-19T01:07:19.990Z,27.51
2022-12-19T01:10:10.642Z,27.41
2022-12-19T01:13:01.829Z,27.27
2022-12-19T01:15:52.052Z,27.31
2022-12-19T01:18:42.641Z,27.20
2022-12-19T01:21:32.541Z,27.28
2022-12-19T01:24:22.406Z,27.20
2022-12-19T01:27:13.205Z,27.20
2022-12-19T01:30:03.204Z,27.26
2022-12-19T01:32:54.687Z,27.23
2022-12-19T01:35:51.137Z,26.89
2022-12-19T01:38:41.041Z,27.27
2022-12-19T01:41:31.390Z,27.29
2022-12-19T01:44:21.097Z,27.21
2022-12-19T01:47:15.782Z,26.95
2022-12-19T01:50:06.896Z,27.30
2022-12-19T01:52:59.043Z,27.36
2022-12-19T01:55:48.947Z,27.36
2022-12-19T01:58:45.034Z,27.41
2022-12-19T02:01:41.460Z,27.36
2022-12-19T02:04:46.469Z,27.48
2022-12-19T02:07:21.573Z,27.48
2022-12-19T02:09:57.254Z,27.52
2022-12-19T02:12:42.573Z,27.30
2022-12-19T02:15:17.642Z,27.29
2022-12-19T02:17:52.745Z,27.59
2022-12-19T02:21:01.016Z,27.18
2022-12-19T02:23:32.955Z,27.66
2022-12-19T02:26:32.569Z,27.62
2022-12-19T02:29:40.252Z,27.65
2022-12-19T02:32:16.828Z,27.75
2022-12-19T02:35:04.524Z,27.14
2022-12-19T02:37:54.141Z,27.48
2022-12-19T02:40:42.595Z,27.82
2022-12-19T02:43:19.583Z,27.81
2022-12-19T02:45:52.437Z,27.95
2022-12-19T02:48:25.906Z,27.71
2022-12-19T02:50:58.835Z,28.00
2022-12-19T02:53:30.192Z,28.00
2022-12-19T02:56:33.169Z,28.01
2022-12-19T02:59:30.339Z,28.11
2022-12-19T03:02:28.041Z,27.79
2022-12-19T03:05:17.474Z,28.23
2022-12-19T03:07:59.676Z,27.92
2022-12-19T03:10:43.254Z,28.23
2022-12-19T03:13:23.780Z,28.04
2022-12-19T03:15:55.601Z,28.35
2022-12-19T03:18:28.295Z,28.40
2022-12-19T03:21:07.011Z,28.19
2022-12-19T03:23:38.720Z,28.47
2022-12-19T03:26:17.193Z,28.40
2022-12-19T03:28:53.019Z,28.40
2022-12-19T03:31:29.748Z,28.35
2022-12-19T03:34:05.254Z,28.57
2022-12-19T03:36:43.647Z,28.34
2022-12-19T03:39:16.692Z,28.30
2022-12-19T03:42:08.023Z,28.64
2022-12-19T03:44:44.267Z,28.59
2022-12-19T03:47:22.624Z,28.70
2022-12-19T03:49:54.366Z,28.70
2022-12-19T03:52:45.556Z,28.68
2022-12-19T03:55:32.390Z,28.71
2022-12-19T03:58:11.483Z,28.71
2022-12-19T04:00:52.327Z,28.73
2022-12-19T04:03:25.274Z,28.74
2022-12-19T04:05:59.994Z,28.62
2022-12-19T04:08:34.058Z,28.79
2022-12-19T04:11:16.112Z,28.76
2022-12-19T04:13:55.193Z,28.52
2022-12-19T04:16:34.773Z,28.46
2022-12-19T04:19:20.432Z,28.93
2022-12-19T04:22:04.238Z,28.95
2022-12-19T04:24:39.613Z,28.65
2022-12-19T04:27:13.004Z,28.67
2022-12-19T04:29:45.466Z,29.03
2022-12-19T04:32:16.836Z,28.82
2022-12-19T04:34:48.230Z,29.08
2022-12-19T04:37:19.875Z,29.06
2022-12-19T04:39:51.278Z,29.12
2022-12-19T04:42:23.436Z,29.16
2022-12-19T04:44:55.088Z,29.13
2022-12-19T04:47:26.474Z,29.17
2022-12-19T04:49:57.924Z,29.13
2022-12-19T04:52:29.284Z,29.17
2022-12-19T04:55:00.723Z,29.00
2022-12-19T04:57:33.174Z,29.20
2022-12-19T05:00:06.534Z,29.22
2022-12-19T05:02:39.809Z,29.24
2022-12-19T05:05:11.763Z,29.24
2022-12-19T05:07:43.236Z,29.26
2022-12-19T05:10:14.699Z,29.29
2022-12-19T05:12:46.143Z,29.29
2022-12-19T05:15:17.524Z,29.32
2022-12-19T05:17:48.841Z,29.33
2022-12-19T05:20:20.405Z,29.36
2022-12-19T05:22:51.744Z,29.36
2022-12-19T05:25:23.199Z,29.38
2022-12-19T05:27:54.585Z,29.41
2022-12-19T05:30:26.365Z,29.32
2022-12-19T05:32:57.806Z,29.32
2022-12-19T05:35:29.369Z,29.28
2022-12-19T05:38:00.692Z,29.22
2022-12-19T05:40:32.149Z,29.08
2022-12-19T05:43:03.632Z,29.12
2022-12-19T05:45:35.191Z,29.07
2022-12-19T05:48:07.182Z,29.04
2022-12-19T05:50:41.116Z,29.02
2022-12-19T05:53:15.445Z,29.00
2022-12-19T05:55:47.419Z,28.88
2022-12-19T05:58:21.353Z,28.66
2022-12-19T06:00:54.852Z,28.89
2022-12-19T06:03:29.864Z,28.91
2022-12-19T06:06:08.515Z,28.91
2022-12-19T06:08:40.097Z,28.94
2022-12-19T06:11:12.886Z,28.95
2022-12-19T06:13:44.549Z,28.91
2022-12-19T06:16:18.492Z,28.59
2022-12-19T06:18:50.789Z,28.96
2022-12-19T06:21:25.047Z,28.68
2022-12-19T06:23:57.269Z,28.98
2022-12-19T06:26:28.987Z,28.95
2022-12-19T06:29:00.240Z,28.73
2022-12-19T06:31:31.692Z,28.98
2022-12-19T06:34:04.013Z,29.01
2022-12-19T06:36:36.078Z,28.91
2022-12-19T06:39:07.385Z,28.96
2022-12-19T06:41:57.235Z,28.99
2022-12-19T06:44:29.061Z,29.01
2022-12-19T06:47:00.977Z,28.98
2022-12-19T06:49:32.322Z,29.03
2022-12-19T06:52:09.291Z,29.04
2022-12-19T06:54:41.034Z,29.02
2022-12-19T06:57:12.500Z,29.00
2022-12-19T06:59:43.945Z,29.00
2022-12-19T07:02:29.762Z,29.01
2022-12-19T07:05:07.585Z,28.75
2022-12-19T07:07:39.489Z,29.06
2022-12-19T07:10:11.624Z,29.06
2022-12-19T07:12:42.855Z,28.83
2022-12-19T07:15:14.263Z,29.09
2022-12-19T07:17:45.586Z,28.85
2022-12-19T07:20:17.988Z,29.11
2022-12-19T07:22:50.702Z,29.18
2022-12-19T07:25:22.334Z,29.18
2022-12-19T07:27:55.030Z,29.22
2022-12-19T07:30:26.530Z,29.18
2022-12-19T07:32:58.234Z,29.25
2022-12-19T07:35:29.727Z,29.25
2022-12-19T07:38:06.288Z,29.25
2022-12-19T07:40:38.366Z,29.24
2022-12-19T07:43:09.708Z,29.19
2022-12-19T07:45:41.279Z,29.29
2022-12-19T07:48:12.744Z,29.33
2022-12-19T07:50:44.255Z,29.35
2022-12-19T07:53:16.013Z,29.37
2022-12-19T07:55:47.512Z,29.40
2022-12-19T07:58:20.336Z,29.43
2022-12-19T08:00:59.439Z,29.47
2022-12-19T08:03:30.968Z,29.13
2022-12-19T08:06:04.543Z,29.23
2022-12-19T08:08:37.048Z,29.56
2022-12-19T08:11:14.567Z,29.26
2022-12-19T08:13:48.009Z,29.53
2022-12-19T08:16:19.669Z,29.64
2022-12-19T08:18:51.137Z,29.77
2022-12-19T08:21:23.369Z,29.82
2022-12-19T08:23:56.483Z,30.11
2022-12-19T08:26:31.237Z,30.31
2022-12-19T08:29:07.412Z,30.48
2022-12-19T08:31:40.018Z,30.59
2022-12-19T08:34:11.541Z,30.66
2022-12-19T08:36:43.036Z,30.73
2022-12-19T08:39:14.399Z,30.77
2022-12-19T08:41:46.258Z,30.92
2022-12-19T08:44:18.002Z,30.98
2022-12-19T08:46:50.525Z,31.01
2022-12-19T08:49:22.719Z,31.01
2022-12-19T08:51:54.239Z,31.08
2022-12-19T08:54:25.755Z,31.11
2022-12-19T08:56:57.110Z,31.16
2022-12-19T08:59:31.227Z,31.21
2022-12-19T09:02:05.126Z,31.30
2022-12-19T09:06:04.431Z,31.30
2022-12-19T09:07:30.491Z,31.34
2022-12-19T09:10:01.847Z,31.41
2022-12-19T09:12:33.259Z,31.42
2022-12-19T09:15:04.850Z,31.43
2022-12-19T09:17:36.408Z,31.43
2022-12-19T09:20:08.298Z,31.47
2022-12-19T09:22:39.108Z,31.28
2022-12-19T09:25:10.882Z,31.47
2022-12-19T09:28:09.164Z,31.34
2022-12-19T09:30:33.126Z,31.48
2022-12-19T09:33:07.388Z,31.63
2022-12-19T09:35:38.751Z,31.60
2022-12-19T09:38:11.208Z,31.64
2022-12-19T09:41:18.077Z,31.55
2022-12-19T09:44:14.819Z,31.67
2022-12-19T09:46:57.821Z,31.68
2022-12-19T09:49:41.629Z,31.38
2022-12-19T09:52:30.283Z,31.72
2022-12-19T09:55:30.637Z,31.67
2022-12-19T09:58:09.454Z,31.75
2022-12-19T10:01:00.890Z,31.73
2022-12-19T10:03:42.195Z,31.48
2022-12-19T10:07:11.538Z,31.78
2022-12-19T10:10:37.551Z,31.44
2022-12-19T10:12:52.327Z,31.78
2022-12-19T10:15:59.876Z,31.78
2022-12-19T10:18:44.434Z,31.80
2022-12-19T10:25:11.388Z,31.70
2022-12-19T10:27:58.466Z,31.65
2022-12-19T10:30:37.893Z,31.77
2022-12-19T10:33:21.510Z,31.78
2022-12-19T10:36:02.319Z,31.47
2022-12-19T10:38:59.224Z,31.74
2022-12-19T10:41:34.375Z,31.79
2022-12-19T10:44:16.118Z,31.74
2022-12-19T10:46:52.419Z,31.96
2022-12-19T10:49:27.452Z,31.73
2022-12-19T10:52:01.881Z,32.00
2022-12-19T10:54:39.114Z,31.98
2022-12-19T10:57:30.889Z,31.92
2022-12-19T11:00:05.530Z,31.98
2022-12-19T11:02:45.410Z,31.71
2022-12-19T11:05:29.889Z,31.93
2022-12-19T11:08:10.214Z,31.95
2022-12-19T11:11:45.296Z,31.68
2022-12-19T11:19:13.522Z,31.91
2022-12-19T11:21:51.308Z,31.89
2022-12-19T11:29:18.342Z,31.86
2022-12-19T11:29:32.821Z,31.50
2022-12-19T11:29:41.737Z,31.77
2022-12-19T11:30:35.949Z,31.75
2022-12-19T11:34:26.596Z,31.72
2022-12-19T11:37:20.663Z,31.73
2022-12-19T11:39:56.297Z,31.75
2022-12-19T11:42:55.508Z,31.38
2022-12-19T11:46:01.292Z,31.65
2022-12-19T11:48:39.019Z,31.73
2022-12-19T11:51:35.925Z,31.37
2022-12-19T11:54:38.439Z,31.43
2022-12-19T11:57:13.812Z,31.39
2022-12-19T11:59:45.262Z,31.65
2022-12-19T12:02:31.618Z,31.37
2022-12-19T12:05:39.273Z,31.51
2022-12-19T12:10:00.162Z,31.55
2022-12-19T12:18:56.766Z,31.55
2022-12-19T12:24:48.052Z,31.51
2022-12-19T12:31:09.471Z,31.42
2022-12-19T12:31:12.119Z,31.46
2022-12-19T12:31:46.923Z,31.42
2022-12-19T12:32:04.342Z,31.34
2022-12-19T12:35:42.531Z,31.35
2022-12-19T12:38:27.668Z,30.87
2022-12-19T12:41:45.660Z,31.04
2022-12-19T12:44:18.140Z,31.05
2022-12-19T12:47:30.504Z,30.87
2022-12-19T12:50:15.171Z,30.60
2022-12-19T12:52:51.460Z,30.62
2022-12-19T12:55:36.722Z,30.89
2022-12-19T12:58:28.573Z,30.82
2022-12-19T13:01:19.860Z,30.81
2022-12-19T13:04:13.285Z,30.86
2022-12-19T13:07:05.539Z,30.75
2022-12-19T13:09:38.613Z,30.52
2022-12-19T13:12:45.546Z,30.77
2022-12-19T13:15:29.359Z,30.75
2022-12-19T13:18:27.739Z,30.65
2022-12-19T13:21:00.944Z,30.55
2022-12-19T13:23:32.362Z,30.68
2022-12-19T13:26:04.949Z,30.62
2022-12-19T13:28:36.383Z,30.65
2022-12-19T13:31:20.949Z,30.63
2022-12-19T13:33:56.563Z,30.65
2022-12-19T13:39:51.848Z,30.57
2022-12-19T13:40:09.075Z,30.43
2022-12-19T13:43:19.898Z,30.50
2022-12-19T13:45:58.162Z,30.62
2022-12-19T13:48:33.883Z,30.38
2022-12-19T13:51:10.843Z,30.72
2022-12-19T13:53:44.201Z,30.63
2022-12-19T13:56:22.184Z,30.72
2022-12-19T13:59:03.192Z,30.49
2022-12-19T14:01:37.687Z,30.72
2022-12-19T14:04:30.636Z,30.47
2022-12-19T14:07:07.110Z,30.50
2022-12-19T14:11:28.084Z,30.41
2022-12-19T14:13:59.226Z,30.73
2022-12-19T14:15:53.173Z,30.76
2022-12-19T14:18:45.065Z,30.47
2022-12-19T14:22:04.748Z,30.45
2022-12-19T14:24:24.979Z,30.62
2022-12-19T14:28:25.369Z,30.33
2022-12-19T14:30:28.860Z,30.19
2022-12-19T14:33:47.424Z,30.15
2022-12-19T14:36:10.558Z,30.01
2022-12-19T14:39:23.220Z,30.03
2022-12-19T14:42:04.597Z,30.12
2022-12-19T14:52:50.856Z,29.78
2022-12-19T14:53:34.254Z,30.10
2022-12-19T14:54:27.812Z,30.04
2022-12-19T14:54:30.698Z,29.93
2022-12-19T14:56:46.735Z,29.40
2022-12-19T14:59:43.722Z,29.88
2022-12-19T15:02:32.423Z,29.75
2022-12-19T15:05:08.850Z,29.74
2022-12-19T15:07:46.476Z,29.47
2022-12-19T15:11:03.471Z,29.70
2022-12-19T15:14:51.085Z,29.72
2022-12-19T15:16:33.377Z,29.67
2022-12-19T15:19:07.596Z,29.68
2022-12-19T15:21:39.087Z,29.64
2022-12-19T15:24:11.184Z,29.65
2022-12-19T15:26:48.785Z,29.39
2022-12-19T15:29:22.257Z,29.55
2022-12-19T15:31:53.913Z,29.61
2022-12-19T15:34:41.656Z,29.49
2022-12-19T15:37:18.358Z,29.37
2022-12-19T15:39:49.608Z,29.59
2022-12-19T15:42:26.648Z,29.54
2022-12-19T15:45:01.382Z,29.60
2022-12-19T15:47:38.257Z,29.58
2022-12-19T15:50:27.577Z,29.33
2022-12-19T15:53:01.487Z,29.53
2022-12-19T15:55:33.178Z,29.52
2022-12-19T15:58:08.285Z,29.49
2022-12-19T16:00:40.815Z,29.47
2022-12-19T16:03:25.111Z,29.44
2022-12-19T16:05:58.117Z,29.43
2022-12-19T16:08:29.747Z,29.40
2022-12-19T16:11:02.145Z,29.37
2022-12-19T16:13:36.697Z,29.19
2022-12-19T16:16:15.456Z,29.38
2022-12-19T16:18:48.882Z,29.31
2022-12-19T16:21:33.583Z,29.33
2022-12-19T16:24:05.777Z,29.30
2022-12-19T16:26:39.679Z,28.94
2022-12-19T16:29:27.414Z,28.88
2022-12-19T16:31:59.312Z,29.23
2022-12-19T16:34:31.059Z,29.21
2022-12-19T16:37:02.796Z,29.18
2022-12-19T16:39:34.127Z,29.16
2022-12-19T16:42:13.865Z,29.16
2022-12-19T16:44:50.049Z,28.74
2022-12-19T16:47:21.464Z,29.11
2022-12-19T16:49:53.039Z,29.07
2022-12-19T16:52:24.391Z,29.06
2022-12-19T16:54:58.464Z,29.06
2022-12-19T16:57:29.830Z,29.02
2022-12-19T17:00:01.382Z,28.93
2022-12-19T17:03:00.358Z,28.91
2022-12-19T17:05:34.168Z,28.92
2022-12-19T17:08:12.944Z,28.93
2022-12-19T17:10:47.767Z,28.60
2022-12-19T17:13:19.599Z,28.90
2022-12-19T17:15:56.750Z,28.85
2022-12-19T17:18:36.007Z,28.81
2022-12-19T17:21:07.454Z,28.81
2022-12-19T17:23:38.956Z,28.80
2022-12-19T17:26:15.834Z,28.77
2022-12-19T17:28:49.576Z,28.73
2022-12-19T17:31:30.732Z,28.60
2022-12-19T17:34:02.109Z,28.70
2022-12-19T17:36:37.510Z,28.69
2022-12-19T17:39:29.700Z,28.59
2022-12-19T17:42:21.940Z,28.35
2022-12-19T17:44:53.251Z,28.37
2022-12-19T17:47:24.817Z,28.59
2022-12-19T17:49:56.132Z,28.59
2022-12-19T17:52:27.665Z,28.59
2022-12-19T17:54:59.339Z,28.57
2022-12-19T17:57:30.681Z,28.51
2022-12-19T18:00:01.977Z,28.55
2022-12-19T18:02:43.964Z,28.52
2022-12-19T18:05:26.293Z,28.28
2022-12-19T18:07:58.019Z,28.47
2022-12-19T18:10:32.352Z,28.19
2022-12-19T18:13:03.799Z,28.47
2022-12-19T18:15:35.350Z,28.45
2022-12-19T18:18:06.800Z,28.44
2022-12-19T18:20:38.214Z,28.43
2022-12-19T18:23:18.772Z,28.41
2022-12-19T18:25:53.628Z,28.43
2022-12-19T18:28:28.961Z,28.45
2022-12-19T18:31:12.523Z,28.37
2022-12-19T18:33:47.109Z,28.34
2022-12-19T18:36:27.538Z,28.38
2022-12-19T18:38:59.304Z,28.38
2022-12-19T18:41:30.786Z,28.37
2022-12-19T18:44:02.514Z,28.39
2022-12-19T18:46:35.021Z,28.36
2022-12-19T18:49:07.956Z,28.37
2022-12-19T18:51:39.408Z,28.36
2022-12-19T18:54:19.961Z,28.04
2022-12-19T18:56:51.500Z,28.27
2022-12-19T18:59:22.933Z,28.29
2022-12-19T19:01:54.489Z,28.27
2022-12-19T19:04:26.052Z,28.25
2022-12-19T19:06:57.828Z,28.23
2022-12-19T19:09:29.175Z,28.22
2022-12-19T19:12:24.535Z,28.20
2022-12-19T19:14:55.821Z,28.18
2022-12-19T19:17:31.995Z,27.53
2022-12-19T19:20:04.573Z,28.15
2022-12-19T19:22:36.317Z,28.13
2022-12-19T19:25:08.255Z,28.07
2022-12-19T19:27:41.361Z,28.10
2022-12-19T19:30:14.198Z,27.85
2022-12-19T19:33:10.073Z,28.06
2022-12-19T19:35:41.741Z,28.03
2022-12-19T19:38:14.683Z,28.01
2022-12-19T19:40:46.301Z,28.04
2022-12-19T19:43:18.097Z,27.96
2022-12-19T19:45:49.703Z,27.97
2022-12-19T19:48:20.985Z,27.67
2022-12-19T19:50:52.324Z,27.88
2022-12-19T19:53:23.972Z,27.89
2022-12-19T19:56:01.091Z,27.58
2022-12-19T19:58:32.784Z,27.86
2022-12-19T20:01:14.149Z,27.70
2022-12-19T20:03:46.165Z,27.82
2022-12-19T20:06:18.034Z,27.82
2022-12-19T20:08:49.767Z,27.80
2022-12-19T20:11:22.191Z,27.78
2022-12-19T20:13:53.553Z,27.80
2022-12-19T20:16:25.011Z,27.79
2022-12-19T20:18:56.977Z,27.75
2022-12-19T20:21:28.658Z,27.74
2022-12-19T20:23:59.982Z,27.73
2022-12-19T20:26:31.333Z,27.71
2022-12-19T20:29:02.953Z,27.72
2022-12-19T20:31:35.451Z,27.69
2022-12-19T20:34:07.279Z,27.65
2022-12-19T20:36:39.052Z,27.49
2022-12-19T20:39:11.023Z,27.66
2022-12-19T20:41:42.479Z,27.63
2022-12-19T20:44:16.428Z,27.61
2022-12-19T20:46:52.074Z,27.61
2022-12-19T20:49:25.128Z,27.55
2022-12-19T20:51:56.565Z,27.57
2022-12-19T20:54:28.331Z,27.56
2022-12-19T20:56:59.760Z,27.54
2022-12-19T20:59:31.080Z,27.43
2022-12-19T21:02:04.134Z,27.51
2022-12-19T21:04:35.949Z,27.50
2022-12-19T21:07:07.197Z,27.21
2022-12-19T21:09:38.712Z,27.43
2022-12-19T21:12:10.426Z,27.44
2022-12-19T21:14:41.891Z,27.44
2022-12-19T21:17:13.459Z,27.35
2022-12-19T21:19:44.962Z,27.33
2022-12-19T21:22:16.713Z,27.38
2022-12-19T21:24:48.243Z,27.38
2022-12-19T21:27:19.614Z,27.31
2022-12-19T21:29:51.236Z,27.36
2022-12-19T21:32:23.038Z,27.35
2022-12-19T21:34:57.304Z,27.35
2022-12-19T21:37:28.903Z,27.32
2022-12-19T21:40:00.666Z,27.30
2022-12-19T21:42:32.095Z,27.26
2022-12-19T21:45:03.450Z,27.28
2022-12-19T21:47:34.835Z,27.24
2022-12-19T21:50:07.380Z,27.26
2022-12-19T21:52:39.605Z,27.24
2022-12-19T21:55:11.779Z,27.27
2022-12-19T21:57:44.095Z,27.26
2022-12-19T22:00:15.915Z,27.29
2022-12-19T22:03:12.187Z,26.92
2022-12-19T22:05:41.394Z,27.21
2022-12-19T22:08:13.387Z,27.29
2022-12-19T22:10:45.498Z,26.97
2022-12-19T22:13:17.819Z,27.26
2022-12-19T22:15:49.250Z,27.29
2022-12-19T22:18:21.307Z,27.28
2022-12-19T22:20:52.572Z,27.06
2022-12-19T22:23:24.106Z,27.25
2022-12-19T22:26:15.586Z,27.14
2022-12-19T22:28:49.646Z,26.86
2022-12-19T22:31:25.569Z,27.20
2022-12-19T22:34:02.873Z,27.18
2022-12-19T22:36:37.241Z,26.81
2022-12-19T22:39:12.110Z,26.71
2022-12-19T22:41:44.057Z,27.10
2022-12-19T22:44:21.500Z,27.04
2022-12-19T22:46:54.066Z,27.08
2022-12-19T22:49:25.458Z,27.07
2022-12-19T22:51:56.794Z,27.04
2022-12-19T22:54:28.157Z,27.04
2022-12-19T22:56:59.475Z,26.77
2022-12-19T22:59:30.880Z,26.96
2022-12-19T23:02:02.395Z,26.98
2022-12-19T23:04:33.980Z,27.02
2022-12-19T23:07:05.448Z,27.09
2022-12-19T23:09:36.996Z,27.13
2022-12-19T23:12:08.933Z,27.13
2022-12-19T23:14:40.312Z,27.18
2022-12-19T23:17:11.898Z,27.23
2022-12-19T23:19:43.787Z,27.26
2022-12-19T23:22:15.348Z,27.30
2022-12-19T23:24:47.166Z,27.33
2022-12-19T23:27:18.541Z,27.36
2022-12-19T23:29:51.378Z,27.13
2022-12-19T23:32:22.884Z,27.45
2022-12-19T23:34:54.295Z,27.48
2022-12-19T23:37:25.695Z,27.48
2022-12-19T23:39:57.168Z,27.54
2022-12-19T23:42:28.638Z,27.59
2022-12-19T23:45:00.251Z,27.66
2022-12-19T23:47:31.539Z,27.68
2022-12-19T23:50:02.892Z,27.66
2022-12-19T23:52:34.220Z,27.69
2022-12-19T23:55:05.705Z,27.70
2022-12-19T23:57:37.240Z,27.61
